createdAt,value
2022-07-27T00:02:09.432Z,89.62
2022-07-27T00:07:12.285Z,90.15
2022-07-27T00:12:15.165Z,89.24
2022-07-27T00:17:23.794Z,89.46
2022-07-27T00:22:26.596Z,89.99
2022-07-27T00:27:29.369Z,92.20
2022-07-27T00:32:33.469Z,92.41
2022-07-27T00:37:36.224Z,94.62
2022-07-27T00:42:39.257Z,92.54
2022-07-27T00:47:43.391Z,91.54
2022-07-27T00:52:46.644Z,93.45
2022-07-27T00:57:58.435Z,95.24
2022-07-27T01:03:08.720Z,94.00
2022-07-27T01:08:14.633Z,94.06
2022-07-27T01:13:17.961Z,94.38
2022-07-27T01:18:32.602Z,93.99
2022-07-27T01:23:36.770Z,93.13
2022-07-27T01:28:39.516Z,90.50
2022-07-27T01:33:42.305Z,92.79
2022-07-27T01:38:47.129Z,94.04
2022-07-27T01:43:49.916Z,97.41
2022-07-27T01:48:52.799Z,93.24
2022-07-27T01:53:56.986Z,97.02
2022-07-27T01:59:00.070Z,99.98
2022-07-27T02:04:02.827Z,100.00
2022-07-27T02:09:06.987Z,100.00
2022-07-27T02:14:09.800Z,100.00
2022-07-27T02:19:12.867Z,99.00
2022-07-27T02:24:17.233Z,97.43
2022-07-27T02:29:20.477Z,95.64
2022-07-27T02:34:23.228Z,100.00
2022-07-27T02:39:27.354Z,95.57
2022-07-27T02:44:30.154Z,94.53
2022-07-27T02:49:33.033Z,94.71
2022-07-27T02:54:37.107Z,93.15
2022-07-27T02:59:39.885Z,93.16
2022-07-27T03:04:42.753Z,93.14
2022-07-27T03:09:52.080Z,92.66
2022-07-27T03:14:55.321Z,92.18
2022-07-27T03:19:58.144Z,93.94
2022-07-27T03:25:02.228Z,93.31
2022-07-27T03:30:07.463Z,93.08
2022-07-27T03:35:11.000Z,93.52
2022-07-27T03:40:15.242Z,95.24
2022-07-27T03:45:18.141Z,91.90
2022-07-27T03:50:26.697Z,92.36
2022-07-27T03:55:31.117Z,90.80
2022-07-27T04:00:33.938Z,91.98
2022-07-27T04:05:36.786Z,90.38
2022-07-27T04:10:41.642Z,91.21
2022-07-27T04:15:45.970Z,89.62
2022-07-27T04:20:48.726Z,90.36
2022-07-27T04:25:52.863Z,88.58
2022-07-27T04:30:55.903Z,89.16
2022-07-27T04:35:58.788Z,89.76
2022-07-27T04:41:03.029Z,88.35
2022-07-27T04:46:09.425Z,88.65
2022-07-27T04:51:15.681Z,89.07
2022-07-27T04:56:21.898Z,88.52
2022-07-27T05:01:33.120Z,87.48
2022-07-27T05:06:37.836Z,89.97
2022-07-27T05:11:41.969Z,88.11
2022-07-27T05:16:54.453Z,85.28
2022-07-27T05:21:57.260Z,83.87
2022-07-27T05:27:01.442Z,84.10
2022-07-27T05:32:05.120Z,83.87
2022-07-27T05:37:07.966Z,85.55
2022-07-27T05:42:12.281Z,83.88
2022-07-27T05:47:15.627Z,82.22
2022-07-27T05:52:18.669Z,80.21
2022-07-27T06:02:50.162Z,80.42
2022-07-27T06:08:03.647Z,79.06
2022-07-27T06:13:09.724Z,76.69
2022-07-27T06:18:18.142Z,76.50
2022-07-27T06:23:20.947Z,75.38
2022-07-27T06:28:25.708Z,75.15
2022-07-27T06:33:29.359Z,74.16
2022-07-27T06:38:33.192Z,73.57
2022-07-27T06:43:37.401Z,71.51
2022-07-27T06:48:40.844Z,71.50
2022-07-27T06:53:43.675Z,71.19
2022-07-27T06:58:47.931Z,70.64
2022-07-27T07:03:50.871Z,68.80
2022-07-27T07:08:53.711Z,69.15
2022-07-27T07:13:58.018Z,66.38
2022-07-27T07:19:00.884Z,66.10
2022-07-27T07:24:03.676Z,64.23
2022-07-27T07:29:09.141Z,63.98
2022-07-27T07:34:12.157Z,63.06
2022-07-27T07:39:15.491Z,60.92
2022-07-27T07:44:19.966Z,60.51
2022-07-27T07:54:50.031Z,56.18
2022-07-27T07:59:54.133Z,54.38
2022-07-27T08:04:56.870Z,55.31
2022-07-27T08:09:59.765Z,53.57
2022-07-27T08:15:04.443Z,53.22
2022-07-27T08:20:08.952Z,52.23
2022-07-27T08:25:12.924Z,49.64
2022-07-27T08:30:17.037Z,49.58
2022-07-27T08:35:26.773Z,52.08
2022-07-27T08:40:40.300Z,52.42
2022-07-27T08:45:47.200Z,53.53
2022-07-27T08:50:50.181Z,51.50
2022-07-27T08:55:53.156Z,50.72
2022-07-27T09:00:58.037Z,49.72
2022-07-27T09:06:00.861Z,49.02
2022-07-27T09:11:14.139Z,48.75
2022-07-27T09:16:20.035Z,49.59
2022-07-27T09:21:25.078Z,51.26
2022-07-27T09:26:32.411Z,51.63
2022-07-27T09:31:44.571Z,50.82
2022-07-27T09:36:53.891Z,49.69
2022-07-27T09:41:59.981Z,49.52
2022-07-27T09:47:21.672Z,47.63
2022-07-27T09:52:25.605Z,46.29
2022-07-27T09:57:28.526Z,49.18
2022-07-27T10:02:32.727Z,49.83
2022-07-27T10:07:35.708Z,49.72
2022-07-27T10:12:38.468Z,47.17
2022-07-27T10:17:44.286Z,47.02
2022-07-27T10:22:51.578Z,46.33
2022-07-27T10:28:10.744Z,46.06
2022-07-27T10:33:16.921Z,45.86
2022-07-27T10:38:21.669Z,46.70
2022-07-27T10:43:24.477Z,47.38
2022-07-27T10:48:46.064Z,46.21
2022-07-27T10:59:14.952Z,47.08
2022-07-27T11:04:20.721Z,45.83
2022-07-27T11:14:48.829Z,46.74
2022-07-27T11:19:57.416Z,47.52
2022-07-27T11:25:01.967Z,44.08
2022-07-27T11:30:05.205Z,45.48
2022-07-27T11:35:19.785Z,45.42
2022-07-27T11:40:53.870Z,44.81
2022-07-27T11:45:45.908Z,43.66
2022-07-27T11:50:59.189Z,41.83
2022-07-27T11:56:02.060Z,41.92
2022-07-27T12:01:04.825Z,42.53
2022-07-27T12:06:09.084Z,42.84
2022-07-27T12:11:11.919Z,40.36
2022-07-27T12:16:20.078Z,40.36
2022-07-27T12:21:25.025Z,38.79
2022-07-27T12:26:35.637Z,39.75
2022-07-27T12:31:48.319Z,40.00
2022-07-27T12:36:52.522Z,37.73
2022-07-27T12:42:05.093Z,35.52
2022-07-27T12:47:27.970Z,33.09
2022-07-27T12:52:33.087Z,32.45
2022-07-27T12:57:54.533Z,32.16
2022-07-27T13:03:00.015Z,30.22
2022-07-27T13:08:05.526Z,30.71
2022-07-27T13:13:09.788Z,29.18
2022-07-27T13:18:12.628Z,30.29
2022-07-27T13:23:17.080Z,30.50
2022-07-27T13:28:20.119Z,33.74
2022-07-27T13:33:22.913Z,34.23
2022-07-27T13:38:28.442Z,32.45
2022-07-27T13:43:31.094Z,32.41
2022-07-27T13:48:34.194Z,34.69
2022-07-27T13:53:38.607Z,36.19
2022-07-27T13:58:42.132Z,36.31
2022-07-27T14:03:44.975Z,36.50
2022-07-27T14:08:50.826Z,36.91
2022-07-27T14:13:53.666Z,38.09
2022-07-27T14:18:56.628Z,37.91
2022-07-27T14:24:01.306Z,38.39
2022-07-27T14:29:04.112Z,38.50
2022-07-27T14:34:06.866Z,38.46
2022-07-27T14:39:11.524Z,38.24
2022-07-27T14:44:14.775Z,38.65
2022-07-27T14:49:22.733Z,38.92
2022-07-27T14:54:27.168Z,35.65
2022-07-27T14:59:30.286Z,37.25
2022-07-27T15:04:33.353Z,38.23
2022-07-27T15:09:37.516Z,38.17
2022-07-27T15:14:40.300Z,32.39
2022-07-27T15:19:43.168Z,35.55
2022-07-27T15:24:47.319Z,37.30
2022-07-27T15:29:50.113Z,36.50
2022-07-27T15:34:52.893Z,37.31
2022-07-27T15:40:01.275Z,34.92
2022-07-27T15:45:04.447Z,26.92
2022-07-27T15:50:08.197Z,24.68
2022-07-27T15:55:16.268Z,22.96
2022-07-27T16:05:48.650Z,20.92
2022-07-27T16:10:52.865Z,21.73
2022-07-27T16:16:13.381Z,27.77
2022-07-27T16:21:16.284Z,30.66
2022-07-27T16:26:27.324Z,24.15
2022-07-27T16:31:30.997Z,22.34
2022-07-27T16:36:38.659Z,21.38
2022-07-27T16:41:43.977Z,21.83
2022-07-27T16:46:48.608Z,24.67
2022-07-27T16:51:51.620Z,25.62
2022-07-27T16:56:56.076Z,25.79
2022-07-27T17:01:58.997Z,26.83
2022-07-27T17:07:01.941Z,29.68
2022-07-27T17:12:06.513Z,29.09
2022-07-27T17:17:09.459Z,32.06
2022-07-27T17:22:12.212Z,30.31
2022-07-27T17:27:16.342Z,30.36
2022-07-27T17:32:19.108Z,32.67
2022-07-27T17:37:21.923Z,32.34
2022-07-27T17:42:27.358Z,33.80
2022-07-27T17:47:30.234Z,35.64
2022-07-27T17:52:38.050Z,36.53
2022-07-27T17:57:42.603Z,38.06
2022-07-27T18:02:46.431Z,38.27
2022-07-27T18:07:51.520Z,38.88
2022-07-27T18:12:55.787Z,39.56
2022-07-27T18:17:58.648Z,40.42
2022-07-27T18:23:01.380Z,40.57
2022-07-27T18:28:05.947Z,41.40
2022-07-27T18:33:08.771Z,42.09
2022-07-27T18:38:13.921Z,42.81
2022-07-27T18:43:18.467Z,44.04
2022-07-27T18:48:21.318Z,44.46
2022-07-27T18:53:24.187Z,45.06
2022-07-27T18:58:28.590Z,45.47
2022-07-27T19:03:32.210Z,46.13
2022-07-27T19:08:35.016Z,46.56
2022-07-27T19:13:39.180Z,46.95
2022-07-27T19:18:42.061Z,47.54
2022-07-27T19:23:44.853Z,47.87
2022-07-27T19:28:49.055Z,48.20
2022-07-27T19:33:52.446Z,48.24
2022-07-27T19:38:55.193Z,48.94
2022-07-27T19:43:59.321Z,50.18
2022-07-27T19:49:02.164Z,49.79
2022-07-27T19:54:05.448Z,51.01
2022-07-27T19:59:09.833Z,52.06
2022-07-27T20:04:12.801Z,52.23
2022-07-27T20:09:16.572Z,52.24
2022-07-27T20:14:20.886Z,54.62
2022-07-27T20:19:23.626Z,57.46
2022-07-27T20:24:26.505Z,58.72
2022-07-27T20:29:31.319Z,60.22
2022-07-27T20:34:35.991Z,61.42
2022-07-27T20:39:38.817Z,60.74
2022-07-27T20:44:43.456Z,59.48
2022-07-27T20:49:46.319Z,59.19
2022-07-27T20:54:49.062Z,58.31
2022-07-27T20:59:53.220Z,57.49
2022-07-27T21:04:55.969Z,57.37
2022-07-27T21:09:58.694Z,61.98
2022-07-27T21:15:02.787Z,63.52
2022-07-27T21:20:06.581Z,64.89
2022-07-27T21:25:11.058Z,64.82
2022-07-27T21:30:18.135Z,63.45
2022-07-27T21:35:22.059Z,65.65
2022-07-27T21:40:24.905Z,64.08
2022-07-27T21:45:29.290Z,64.67
2022-07-27T21:50:32.044Z,64.76
2022-07-27T21:55:34.949Z,66.45
2022-07-27T22:00:39.737Z,68.54
2022-07-27T22:05:42.652Z,70.26
2022-07-27T22:10:45.522Z,69.04
2022-07-27T22:15:50.401Z,70.01
2022-07-27T22:20:53.344Z,71.25
2022-07-27T22:25:56.872Z,70.73
2022-07-27T22:31:21.179Z,74.37
2022-07-27T22:36:26.618Z,74.48
2022-07-27T22:41:29.580Z,72.96
2022-07-27T22:46:33.910Z,73.90
2022-07-27T22:51:49.609Z,73.31
2022-07-27T22:56:55.571Z,73.13
2022-07-27T23:01:59.898Z,75.29
2022-07-27T23:07:02.726Z,75.11
2022-07-27T23:12:06.263Z,76.61
2022-07-27T23:17:10.344Z,76.76
2022-07-27T23:22:13.131Z,77.38
2022-07-27T23:27:20.026Z,75.84
2022-07-27T23:32:24.136Z,76.91
2022-07-27T23:37:27.131Z,77.77
2022-07-27T23:42:29.872Z,81.65
2022-07-27T23:47:34.055Z,83.56
2022-07-27T23:52:37.048Z,82.23
2022-07-27T23:57:39.769Z,84.46
